sensor_id;sensor_type;location;lat;lon;timestamp;pressure;altitude;pressure_sealevel;temperature;humidity
71795;BME280;59641;45.188;5.712;2023-03-04T00:01:24;99684.84;;;10.40;46.06
71795;BME280;59641;45.188;5.712;2023-03-04T00:03:50;99689.78;;;10.43;46.09
71795;BME280;59641;45.188;5.712;2023-03-04T00:06:15;99693.31;;;10.44;46.00
71795;BME280;59641;45.188;5.712;2023-03-04T00:08:41;99694.94;;;10.45;46.18
71795;BME280;59641;45.188;5.712;2023-03-04T00:11:06;99697.63;;;10.45;46.12
71795;BME280;59641;45.188;5.712;2023-03-04T00:13:31;99698.44;;;10.45;46.08
71795;BME280;59641;45.188;5.712;2023-03-04T00:15:57;99696.00;;;10.44;46.10
71795;BME280;59641;45.188;5.712;2023-03-04T00:18:22;99702.19;;;10.44;46.26
71795;BME280;59641;45.188;5.712;2023-03-04T00:20:48;99706.50;;;10.45;45.95
71795;BME280;59641;45.188;5.712;2023-03-04T00:23:16;99704.84;;;10.44;46.12
71795;BME280;59641;45.188;5.712;2023-03-04T00:25:42;99706.50;;;10.45;46.21
71795;BME280;59641;45.188;5.712;2023-03-04T00:28:07;99713.72;;;10.45;46.30
71795;BME280;59641;45.188;5.712;2023-03-04T00:30:33;99708.16;;;10.47;46.28
71795;BME280;59641;45.188;5.712;2023-03-04T00:32:58;99706.50;;;10.45;46.27
71795;BME280;59641;45.188;5.712;2023-03-04T00:35:24;99707.31;;;10.46;46.28
71795;BME280;59641;45.188;5.712;2023-03-04T00:37:49;99704.63;;;10.46;46.23
71795;BME280;59641;45.188;5.712;2023-03-04T00:40:15;99701.94;;;10.46;46.29
71795;BME280;59641;45.188;5.712;2023-03-04T00:42:40;99700.09;;;10.47;46.23
71795;BME280;59641;45.188;5.712;2023-03-04T00:45:06;99701.75;;;10.48;46.16
71795;BME280;59641;45.188;5.712;2023-03-04T00:47:32;99699.25;;;10.46;46.40
71795;BME280;59641;45.188;5.712;2023-03-04T00:49:57;99700.94;;;10.47;46.25
71795;BME280;59641;45.188;5.712;2023-03-04T00:52:23;99705.47;;;10.47;46.17
71795;BME280;59641;45.188;5.712;2023-03-04T00:54:48;99696.38;;;10.48;46.29
71795;BME280;59641;45.188;5.712;2023-03-04T00:57:13;99696.38;;;10.48;46.19
71795;BME280;59641;45.188;5.712;2023-03-04T00:59:39;99695.38;;;10.49;46.13
71795;BME280;59641;45.188;5.712;2023-03-04T01:02:05;99698.03;;;10.49;46.23
71795;BME280;59641;45.188;5.712;2023-03-04T01:04:30;99686.47;;;10.48;46.18
71795;BME280;59641;45.188;5.712;2023-03-04T01:06:56;99682.97;;;10.48;46.04
71795;BME280;59641;45.188;5.712;2023-03-04T01:09:21;99688.31;;;10.48;46.03
71795;BME280;59641;45.188;5.712;2023-03-04T01:11:46;99676.78;;;10.47;46.15
71795;BME280;59641;45.188;5.712;2023-03-04T01:14:12;99679.47;;;10.47;46.05
71795;BME280;59641;45.188;5.712;2023-03-04T01:16:37;99685.66;;;10.48;46.15
71795;BME280;59641;45.188;5.712;2023-03-04T01:19:02;99680.28;;;10.48;46.23
71795;BME280;59641;45.188;5.712;2023-03-04T01:21:28;99671.41;;;10.47;46.16
71795;BME280;59641;45.188;5.712;2023-03-04T01:23:53;99670.59;;;10.47;46.23
71795;BME280;59641;45.188;5.712;2023-03-04T01:26:18;99668.72;;;10.47;46.20
71795;BME280;59641;45.188;5.712;2023-03-04T01:28:44;99668.72;;;10.47;46.25
71795;BME280;59641;45.188;5.712;2023-03-04T01:31:09;99662.56;;;10.47;46.24
71795;BME280;59641;45.188;5.712;2023-03-04T01:33:34;99667.06;;;10.46;46.35
71795;BME280;59641;45.188;5.712;2023-03-04T01:36:00;99664.38;;;10.46;46.26
71795;BME280;59641;45.188;5.712;2023-03-04T01:38:25;99669.53;;;10.48;46.27
71795;BME280;59641;45.188;5.712;2023-03-04T01:40:51;99664.38;;;10.46;46.23
71795;BME280;59641;45.188;5.712;2023-03-04T01:43:27;99665.00;;;10.48;46.29
71795;BME280;59641;45.188;5.712;2023-03-04T01:45:55;99666.88;;;10.48;46.12
71795;BME280;59641;45.188;5.712;2023-03-04T01:48:25;99665.44;;;10.45;46.22
71795;BME280;59641;45.188;5.712;2023-03-04T01:50:51;99660.06;;;10.45;46.24
71795;BME280;59641;45.188;5.712;2023-03-04T01:53:21;99651.19;;;10.44;46.22
71795;BME280;59641;45.188;5.712;2023-03-04T01:55:47;99656.34;;;10.46;46.23
71795;BME280;59641;45.188;5.712;2023-03-04T01:58:13;99657.19;;;10.47;46.24
71795;BME280;59641;45.188;5.712;2023-03-04T02:00:44;99647.47;;;10.45;46.26
71795;BME280;59641;45.188;5.712;2023-03-04T02:03:14;99653.66;;;10.46;46.39
71795;BME280;59641;45.188;5.712;2023-03-04T02:05:43;99644.59;;;10.47;46.46
71795;BME280;59641;45.188;5.712;2023-03-04T02:08:09;99653.44;;;10.48;46.63
71795;BME280;59641;45.188;5.712;2023-03-04T02:10:36;99650.97;;;10.46;46.51
71795;BME280;59641;45.188;5.712;2023-03-04T02:13:02;99650.38;;;10.44;46.71
71795;BME280;59641;45.188;5.712;2023-03-04T02:15:29;99653.06;;;10.44;46.72
71795;BME280;59641;45.188;5.712;2023-03-04T02:17:55;99652.44;;;10.42;46.70
71795;BME280;59641;45.188;5.712;2023-03-04T02:20:34;99644.81;;;10.39;46.67
71795;BME280;59641;45.188;5.712;2023-03-04T02:23:16;99643.38;;;10.36;46.88
71795;BME280;59641;45.188;5.712;2023-03-04T02:25:51;99649.97;;;10.34;46.82
71795;BME280;59641;45.188;5.712;2023-03-04T02:28:19;99655.56;;;10.32;46.77
71795;BME280;59641;45.188;5.712;2023-03-04T02:30:45;99648.78;;;10.30;46.78
71795;BME280;59641;45.188;5.712;2023-03-04T02:33:16;99648.97;;;10.28;46.83
71795;BME280;59641;45.188;5.712;2023-03-04T02:35:41;99643.63;;;10.28;46.82
71795;BME280;59641;45.188;5.712;2023-03-04T02:38:09;99645.66;;;10.26;46.78
71795;BME280;59641;45.188;5.712;2023-03-04T02:40:34;99640.09;;;10.28;46.86
71795;BME280;59641;45.188;5.712;2023-03-04T02:43:00;99639.28;;;10.27;46.86
71795;BME280;59641;45.188;5.712;2023-03-04T02:45:30;99640.94;;;10.28;47.02
71795;BME280;59641;45.188;5.712;2023-03-04T02:47:59;99629.16;;;10.29;46.87
71795;BME280;59641;45.188;5.712;2023-03-04T02:50:27;99631.84;;;10.29;46.84
71795;BME280;59641;45.188;5.712;2023-03-04T02:52:53;99629.16;;;10.29;46.83
71795;BME280;59641;45.188;5.712;2023-03-04T02:55:19;99630.00;;;10.30;46.84
71795;BME280;59641;45.188;5.712;2023-03-04T02:57:44;99628.13;;;10.30;46.88
71795;BME280;59641;45.188;5.712;2023-03-04T03:00:10;99626.28;;;10.31;46.97
71795;BME280;59641;45.188;5.712;2023-03-04T03:02:36;99627.91;;;10.32;47.00
71795;BME280;59641;45.188;5.712;2023-03-04T03:05:01;99625.22;;;10.32;46.98
71795;BME280;59641;45.188;5.712;2023-03-04T03:07:27;99625.03;;;10.33;47.02
71795;BME280;59641;45.188;5.712;2023-03-04T03:09:52;99619.66;;;10.33;47.14
71795;BME280;59641;45.188;5.712;2023-03-04T03:12:17;99623.16;;;10.34;46.98
71795;BME280;59641;45.188;5.712;2023-03-04T03:14:43;99620.47;;;10.34;47.13
71795;BME280;59641;45.188;5.712;2023-03-04T03:17:08;99625.84;;;10.34;47.05
71795;BME280;59641;45.188;5.712;2023-03-04T03:19:34;99615.09;;;10.34;46.91
71795;BME280;59641;45.188;5.712;2023-03-04T03:22:00;99616.78;;;10.35;47.16
71795;BME280;59641;45.188;5.712;2023-03-04T03:24:25;99617.59;;;10.35;47.10
71795;BME280;59641;45.188;5.712;2023-03-04T03:26:50;99610.38;;;10.36;47.03
71795;BME280;59641;45.188;5.712;2023-03-04T03:29:16;99617.38;;;10.37;47.10
71795;BME280;59641;45.188;5.712;2023-03-04T03:31:41;99614.91;;;10.35;47.08
71795;BME280;59641;45.188;5.712;2023-03-04T03:34:06;99622.97;;;10.35;47.08
71795;BME280;59641;45.188;5.712;2023-03-04T03:36:32;99616.53;;;10.36;47.16
71795;BME280;59641;45.188;5.712;2023-03-04T03:38:57;99621.91;;;10.36;47.34
71795;BME280;59641;45.188;5.712;2023-03-04T03:41:23;99630.81;;;10.37;47.12
71795;BME280;59641;45.188;5.712;2023-03-04T03:43:48;99628.94;;;10.37;47.07
71795;BME280;59641;45.188;5.712;2023-03-04T03:46:13;99628.94;;;10.37;47.10
71795;BME280;59641;45.188;5.712;2023-03-04T03:48:39;99622.75;;;10.37;47.31
71795;BME280;59641;45.188;5.712;2023-03-04T03:51:04;99622.75;;;10.37;47.26
71795;BME280;59641;45.188;5.712;2023-03-04T03:53:29;99623.56;;;10.37;47.48
71795;BME280;59641;45.188;5.712;2023-03-04T03:55:55;99624.38;;;10.38;47.48
71795;BME280;59641;45.188;5.712;2023-03-04T03:58:20;99630.81;;;10.37;47.43
71795;BME280;59641;45.188;5.712;2023-03-04T04:00:47;99630.56;;;10.38;47.51
71795;BME280;59641;45.188;5.712;2023-03-04T04:03:14;99617.97;;;10.39;47.66
71795;BME280;59641;45.188;5.712;2023-03-04T04:05:40;99625.22;;;10.38;47.58
71795;BME280;59641;45.188;5.712;2023-03-04T04:08:05;99623.34;;;10.39;47.77
71795;BME280;59641;45.188;5.712;2023-03-04T04:10:30;99629.75;;;10.38;47.68
71795;BME280;59641;45.188;5.712;2023-03-04T04:12:56;99633.06;;;10.40;47.79
71795;BME280;59641;45.188;5.712;2023-03-04T04:15:21;99623.34;;;10.39;47.66
71795;BME280;59641;45.188;5.712;2023-03-04T04:17:47;99614.47;;;10.38;47.59
71795;BME280;59641;45.188;5.712;2023-03-04T04:20:12;99625.22;;;10.38;47.51
71795;BME280;59641;45.188;5.712;2023-03-04T04:22:37;99627.88;;;10.38;47.56
71795;BME280;59641;45.188;5.712;2023-03-04T04:25:03;99628.72;;;10.39;47.51
71795;BME280;59641;45.188;5.712;2023-03-04T04:27:29;99628.72;;;10.39;47.29
71795;BME280;59641;45.188;5.712;2023-03-04T04:29:54;99630.56;;;10.38;47.53
71795;BME280;59641;45.188;5.712;2023-03-04T04:32:19;99636.75;;;10.39;47.42
71795;BME280;59641;45.188;5.712;2023-03-04T04:34:45;99640.47;;;10.38;47.42
71795;BME280;59641;45.188;5.712;2023-03-04T04:37:10;99644.22;;;10.37;47.41
71795;BME280;59641;45.188;5.712;2023-03-04T04:39:35;99644.22;;;10.37;47.33
71795;BME280;59641;45.188;5.712;2023-03-04T04:42:01;99640.69;;;10.36;47.65
71795;BME280;59641;45.188;5.712;2023-03-04T04:44:26;99640.69;;;10.36;47.58
71795;BME280;59641;45.188;5.712;2023-03-04T04:46:52;99641.53;;;10.37;47.54
71795;BME280;59641;45.188;5.712;2023-03-04T04:49:17;99641.53;;;10.37;47.40
71795;BME280;59641;45.188;5.712;2023-03-04T04:51:42;99635.56;;;10.35;47.44
71795;BME280;59641;45.188;5.712;2023-03-04T04:54:09;99638.00;;;10.36;47.40
71795;BME280;59641;45.188;5.712;2023-03-04T04:56:34;99638.00;;;10.36;47.61
71795;BME280;59641;45.188;5.712;2023-03-04T04:59:02;99637.81;;;10.38;47.56
71795;BME280;59641;45.188;5.712;2023-03-04T05:01:28;99636.97;;;10.37;47.47
71795;BME280;59641;45.188;5.712;2023-03-04T05:03:54;99627.28;;;10.36;47.59
71795;BME280;59641;45.188;5.712;2023-03-04T05:06:20;99635.31;;;10.36;47.59
71795;BME280;59641;45.188;5.712;2023-03-04T05:08:46;99641.53;;;10.37;47.65
71795;BME280;59641;45.188;5.712;2023-03-04T05:11:12;99633.50;;;10.37;47.52
71795;BME280;59641;45.188;5.712;2023-03-04T05:13:38;99635.31;;;10.36;47.51
71795;BME280;59641;45.188;5.712;2023-03-04T05:16:03;99640.69;;;10.36;47.56
71795;BME280;59641;45.188;5.712;2023-03-04T05:18:29;99641.72;;;10.35;47.58
71795;BME280;59641;45.188;5.712;2023-03-04T05:20:57;99642.56;;;10.36;47.53
71795;BME280;59641;45.188;5.712;2023-03-04T05:23:24;99644.22;;;10.37;47.57
71795;BME280;59641;45.188;5.712;2023-03-04T05:25:50;99644.22;;;10.37;47.56
71795;BME280;59641;45.188;5.712;2023-03-04T05:28:16;99650.59;;;10.36;47.53
71795;BME280;59641;45.188;5.712;2023-03-04T05:30:43;99650.59;;;10.36;47.50
71795;BME280;59641;45.188;5.712;2023-03-04T05:33:09;99646.28;;;10.35;47.52
71795;BME280;59641;45.188;5.712;2023-03-04T05:35:36;99651.84;;;10.33;47.45
71795;BME280;59641;45.188;5.712;2023-03-04T05:38:04;99659.28;;;10.31;47.52
71795;BME280;59641;45.188;5.712;2023-03-04T05:40:30;99655.97;;;10.29;47.42
71795;BME280;59641;45.188;5.712;2023-03-04T05:42:55;99658.03;;;10.27;47.72
71795;BME280;59641;45.188;5.712;2023-03-04T05:45:22;99653.88;;;10.24;47.51
71795;BME280;59641;45.188;5.712;2023-03-04T05:47:47;99666.91;;;10.21;47.83
71795;BME280;59641;45.188;5.712;2023-03-04T05:50:13;99656.38;;;10.19;47.82
71795;BME280;59641;45.188;5.712;2023-03-04T05:52:38;99657.22;;;10.20;47.78
71795;BME280;59641;45.188;5.712;2023-03-04T05:55:04;99657.44;;;10.18;47.89
71795;BME280;59641;45.188;5.712;2023-03-04T05:57:30;99658.47;;;10.17;48.03
71795;BME280;59641;45.188;5.712;2023-03-04T05:59:55;99654.13;;;10.16;48.03
71795;BME280;59641;45.188;5.712;2023-03-04T06:02:20;99654.13;;;10.16;48.14
71795;BME280;59641;45.188;5.712;2023-03-04T06:04:46;99661.97;;;10.18;48.06
71795;BME280;59641;45.188;5.712;2023-03-04T06:07:11;99668.16;;;10.18;48.04
71795;BME280;59641;45.188;5.712;2023-03-04T06:09:36;99667.34;;;10.18;48.06
71795;BME280;59641;45.188;5.712;2023-03-04T06:12:02;99669.78;;;10.19;48.06
71795;BME280;59641;45.188;5.712;2023-03-04T06:14:27;99667.13;;;10.19;48.06
71795;BME280;59641;45.188;5.712;2023-03-04T06:16:52;99668.78;;;10.20;47.85
71795;BME280;59641;45.188;5.712;2023-03-04T06:19:18;99676.00;;;10.13;47.88
71795;BME280;59641;45.188;5.712;2023-03-04T06:21:44;99683.88;;;10.08;48.05
71795;BME280;59641;45.188;5.712;2023-03-04T06:24:09;99678.69;;;10.07;48.15
71795;BME280;59641;45.188;5.712;2023-03-04T06:26:34;99686.34;;;10.03;48.14
71795;BME280;59641;45.188;5.712;2023-03-04T06:29:00;99685.50;;;10.02;48.43
71795;BME280;59641;45.188;5.712;2023-03-04T06:31:25;99679.13;;;10.03;48.54
71795;BME280;59641;45.188;5.712;2023-03-04T06:33:50;99686.13;;;10.05;48.50
71795;BME280;59641;45.188;5.712;2023-03-04T06:36:16;99681.56;;;10.05;48.42
71795;BME280;59641;45.188;5.712;2023-03-04T06:38:41;99686.53;;;10.08;48.40
71795;BME280;59641;45.188;5.712;2023-03-04T06:41:09;99684.88;;;10.07;48.52
71795;BME280;59641;45.188;5.712;2023-03-04T06:43:34;99685.69;;;10.08;48.49
71795;BME280;59641;45.188;5.712;2023-03-04T06:46:00;99695.59;;;10.07;48.58
71795;BME280;59641;45.188;5.712;2023-03-04T06:48:25;99691.69;;;10.10;48.66
71795;BME280;59641;45.188;5.712;2023-03-04T06:50:51;99690.66;;;10.11;48.61
71795;BME280;59641;45.188;5.712;2023-03-04T06:53:16;99695.78;;;10.12;48.58
71795;BME280;59641;45.188;5.712;2023-03-04T06:55:41;99691.88;;;10.15;48.66
71795;BME280;59641;45.188;5.712;2023-03-04T06:58:07;99703.22;;;10.17;48.57
71795;BME280;59641;45.188;5.712;2023-03-04T07:00:32;99708.38;;;10.18;48.37
71795;BME280;59641;45.188;5.712;2023-03-04T07:02:58;99696.03;;;10.17;48.44
71795;BME280;59641;45.188;5.712;2023-03-04T07:05:23;99703.03;;;10.18;48.56
71795;BME280;59641;45.188;5.712;2023-03-04T07:07:49;99706.53;;;10.19;48.55
71795;BME280;59641;45.188;5.712;2023-03-04T07:10:18;99712.50;;;10.21;48.62
71795;BME280;59641;45.188;5.712;2023-03-04T07:12:44;99712.31;;;10.22;48.44
71795;BME280;59641;45.188;5.712;2023-03-04T07:15:09;99712.50;;;10.21;48.49
71795;BME280;59641;45.188;5.712;2023-03-04T07:17:35;99706.09;;;10.22;48.43
71795;BME280;59641;45.188;5.712;2023-03-04T07:20:00;99714.38;;;10.20;48.60
71795;BME280;59641;45.188;5.712;2023-03-04T07:22:26;99717.03;;;10.20;48.68
71795;BME280;59641;45.188;5.712;2023-03-04T07:24:51;99714.13;;;10.22;48.80
71795;BME280;59641;45.188;5.712;2023-03-04T07:27:16;99715.56;;;10.24;48.74
71795;BME280;59641;45.188;5.712;2023-03-04T07:29:42;99710.00;;;10.26;48.49
71795;BME280;59641;45.188;5.712;2023-03-04T07:32:09;99716.84;;;10.29;48.60
71795;BME280;59641;45.188;5.712;2023-03-04T07:34:35;99715.19;;;10.28;48.57
71795;BME280;59641;45.188;5.712;2023-03-04T07:37:00;99717.03;;;10.27;48.77
71795;BME280;59641;45.188;5.712;2023-03-04T07:39:26;99721.56;;;10.27;48.68
71795;BME280;59641;45.188;5.712;2023-03-04T07:41:51;99719.72;;;10.27;48.72
71795;BME280;59641;45.188;5.712;2023-03-04T07:44:16;99720.53;;;10.28;48.69
71795;BME280;59641;45.188;5.712;2023-03-04T07:46:42;99724.91;;;10.29;48.84
71795;BME280;59641;45.188;5.712;2023-03-04T07:49:07;99727.38;;;10.30;48.73
71795;BME280;59641;45.188;5.712;2023-03-04T07:51:35;99724.69;;;10.30;48.97
71795;BME280;59641;45.188;5.712;2023-03-04T07:54:01;99726.34;;;10.31;48.74
71795;BME280;59641;45.188;5.712;2023-03-04T07:56:29;99726.34;;;10.31;48.80
71795;BME280;59641;45.188;5.712;2023-03-04T07:58:55;99731.69;;;10.31;48.74
71795;BME280;59641;45.188;5.712;2023-03-04T08:01:27;99731.69;;;10.31;48.80
71795;BME280;59641;45.188;5.712;2023-03-04T08:03:53;99731.69;;;10.31;48.92
71795;BME280;59641;45.188;5.712;2023-03-04T08:06:20;99732.50;;;10.32;48.67
71795;BME280;59641;45.188;5.712;2023-03-04T08:08:47;99738.72;;;10.32;48.72
71795;BME280;59641;45.188;5.712;2023-03-04T08:11:16;99737.88;;;10.32;48.66
71795;BME280;59641;45.188;5.712;2023-03-04T08:13:41;99741.38;;;10.26;48.73
71795;BME280;59641;45.188;5.712;2023-03-04T08:16:07;99741.59;;;10.24;48.96
71795;BME280;59641;45.188;5.712;2023-03-04T08:18:32;99739.50;;;10.26;48.94
71795;BME280;59641;45.188;5.712;2023-03-04T08:20:58;99740.16;;;10.28;48.99
71795;BME280;59641;45.188;5.712;2023-03-04T08:23:23;99742.66;;;10.30;48.93
71795;BME280;59641;45.188;5.712;2023-03-04T08:25:49;99743.47;;;10.30;48.79
71795;BME280;59641;45.188;5.712;2023-03-04T08:28:14;99743.88;;;10.27;48.83
71795;BME280;59641;45.188;5.712;2023-03-04T08:30:41;99743.88;;;10.27;48.98
71795;BME280;59641;45.188;5.712;2023-03-04T08:33:06;99743.88;;;10.27;48.76
71795;BME280;59641;45.188;5.712;2023-03-04T08:35:35;99752.53;;;10.22;48.90
71795;BME280;59641;45.188;5.712;2023-03-04T08:38:01;99742.63;;;10.23;48.97
71795;BME280;59641;45.188;5.712;2023-03-04T08:40:26;99745.31;;;10.23;48.86
71795;BME280;59641;45.188;5.712;2023-03-04T08:42:52;99747.16;;;10.22;49.07
71795;BME280;59641;45.188;5.712;2023-03-04T08:45:17;99741.38;;;10.26;48.97
71795;BME280;59641;45.188;5.712;2023-03-04T08:47:42;99751.91;;;10.27;49.09
71795;BME280;59641;45.188;5.712;2023-03-04T08:50:09;99755.59;;;10.26;49.17
71795;BME280;59641;45.188;5.712;2023-03-04T08:52:34;99753.59;;;10.28;49.23
71795;BME280;59641;45.188;5.712;2023-03-04T08:55:00;99748.59;;;10.32;49.08
71795;BME280;59641;45.188;5.712;2023-03-04T08:57:25;99751.91;;;10.34;49.25
71795;BME280;59641;45.188;5.712;2023-03-04T08:59:51;99758.50;;;10.38;49.06
71795;BME280;59641;45.188;5.712;2023-03-04T09:02:16;99758.09;;;10.41;49.00
71795;BME280;59641;45.188;5.712;2023-03-04T09:04:41;99749.84;;;10.42;48.99
71795;BME280;59641;45.188;5.712;2023-03-04T09:07:07;99753.97;;;10.45;48.97
71795;BME280;59641;45.188;5.712;2023-03-04T09:09:33;99760.56;;;10.42;48.89
71795;BME280;59641;45.188;5.712;2023-03-04T09:11:59;99757.69;;;10.37;49.00
71795;BME280;59641;45.188;5.712;2023-03-04T09:14:24;99755.84;;;10.38;48.99
71795;BME280;59641;45.188;5.712;2023-03-04T09:16:49;99752.09;;;10.39;48.97
71795;BME280;59641;45.188;5.712;2023-03-04T09:19:15;99753.16;;;10.38;49.22
71795;BME280;59641;45.188;5.712;2023-03-04T09:21:40;99760.56;;;10.42;49.10
71795;BME280;59641;45.188;5.712;2023-03-04T09:24:05;99755.00;;;10.44;49.63
71795;BME280;59641;45.188;5.712;2023-03-04T09:26:31;99749.41;;;10.45;49.12
71795;BME280;59641;45.188;5.712;2023-03-04T09:28:58;99754.59;;;10.47;49.23
71795;BME280;59641;45.188;5.712;2023-03-04T09:31:25;99757.88;;;10.49;49.20
71795;BME280;59641;45.188;5.712;2023-03-04T09:33:52;99767.38;;;10.52;49.05
71795;BME280;59641;45.188;5.712;2023-03-04T09:36:18;99752.28;;;10.51;49.17
71795;BME280;59641;45.188;5.712;2023-03-04T09:38:44;99752.91;;;10.53;49.09
71795;BME280;59641;45.188;5.712;2023-03-04T09:41:15;99753.97;;;10.52;49.27
71795;BME280;59641;45.188;5.712;2023-03-04T09:43:43;99757.25;;;10.54;49.18
71795;BME280;59641;45.188;5.712;2023-03-04T09:46:18;99752.09;;;10.52;49.09
71795;BME280;59641;45.188;5.712;2023-03-04T09:48:50;99754.97;;;10.51;49.13
71795;BME280;59641;45.188;5.712;2023-03-04T09:57:27;99746.75;;;10.45;49.16
71795;BME280;59641;45.188;5.712;2023-03-04T10:00:06;99749.41;;;10.45;49.31
71795;BME280;59641;45.188;5.712;2023-03-04T10:05:28;99747.78;;;10.44;49.32
71795;BME280;59641;45.188;5.712;2023-03-04T10:07:58;99739.72;;;10.44;49.25
71795;BME280;59641;45.188;5.712;2023-03-04T10:10:29;99741.59;;;10.44;49.16
71795;BME280;59641;45.188;5.712;2023-03-04T10:12:56;99736.22;;;10.44;49.47
71795;BME280;59641;45.188;5.712;2023-03-04T10:15:40;99738.06;;;10.43;49.29
71795;BME280;59641;45.188;5.712;2023-03-04T10:18:21;99736.81;;;10.46;49.23
71795;BME280;59641;45.188;5.712;2023-03-04T10:23:33;99735.38;;;10.50;49.27
71795;BME280;59641;45.188;5.712;2023-03-04T10:26:01;99726.06;;;10.53;49.23
71795;BME280;59641;45.188;5.712;2023-03-04T10:28:35;99716.78;;;10.55;49.19
71795;BME280;59641;45.188;5.712;2023-03-04T10:31:01;99719.25;;;10.57;49.11
71795;BME280;59641;45.188;5.712;2023-03-04T10:33:32;99722.75;;;10.57;49.11
71795;BME280;59641;45.188;5.712;2023-03-04T10:36:17;99722.56;;;10.59;49.05
71795;BME280;59641;45.188;5.712;2023-03-04T10:38:47;99715.53;;;10.58;48.83
71795;BME280;59641;45.188;5.712;2023-03-04T10:41:16;99722.16;;;10.55;48.95
71795;BME280;59641;45.188;5.712;2023-03-04T10:46:26;99725.03;;;10.60;48.86
71795;BME280;59641;45.188;5.712;2023-03-04T10:48:53;99723.56;;;10.64;48.91
71795;BME280;59641;45.188;5.712;2023-03-04T10:51:24;99725.81;;;10.68;48.80
71795;BME280;59641;45.188;5.712;2023-03-04T10:57:05;99713.22;;;10.75;48.68
71795;BME280;59641;45.188;5.712;2023-03-04T10:59:46;99719.19;;;10.77;48.53
71795;BME280;59641;45.188;5.712;2023-03-04T11:02:30;99721.66;;;10.78;48.63
71795;BME280;59641;45.188;5.712;2023-03-04T11:05:17;99719.59;;;10.80;48.49
71795;BME280;59641;45.188;5.712;2023-03-04T11:07:48;99712.38;;;10.81;48.47
71795;BME280;59641;45.188;5.712;2023-03-04T11:13:00;99715.03;;;10.87;48.43
71795;BME280;59641;45.188;5.712;2023-03-04T11:15:28;99712.97;;;10.90;48.34
71795;BME280;59641;45.188;5.712;2023-03-04T11:17:58;99708.19;;;10.92;48.29
71795;BME280;59641;45.188;5.712;2023-03-04T11:20:36;99701.56;;;10.94;48.51
71795;BME280;59641;45.188;5.712;2023-03-04T11:23:11;99703.84;;;10.97;48.25
71795;BME280;59641;45.188;5.712;2023-03-04T11:25:47;99702.59;;;11.00;48.21
71795;BME280;59641;45.188;5.712;2023-03-04T11:28:18;99697.59;;;11.03;48.12
71795;BME280;59641;45.188;5.712;2023-03-04T11:30:59;99699.88;;;11.06;48.14
71795;BME280;59641;45.188;5.712;2023-03-04T11:33:38;99697.56;;;11.10;47.92
71795;BME280;59641;45.188;5.712;2023-03-04T11:38:54;99685.34;;;11.14;47.51
71795;BME280;59641;45.188;5.712;2023-03-04T11:41:27;99687.81;;;11.16;46.96
71795;BME280;59641;45.188;5.712;2023-03-04T11:43:56;99690.28;;;11.17;47.36
71795;BME280;59641;45.188;5.712;2023-03-04T11:52:19;99685.09;;;11.22;46.92
71795;BME280;59641;45.188;5.712;2023-03-04T12:00:55;99679.69;;;11.29;46.16
71795;BME280;59641;45.188;5.712;2023-03-04T12:03:43;99674.91;;;11.31;46.28
71795;BME280;59641;45.188;5.712;2023-03-04T12:06:30;99675.28;;;11.35;46.35
71795;BME280;59641;45.188;5.712;2023-03-04T12:17:41;99663.28;;;11.37;45.55
71795;BME280;59641;45.188;5.712;2023-03-04T12:20:23;99657.25;;;11.42;45.53
71795;BME280;59641;45.188;5.712;2023-03-04T12:23:06;99656.63;;;11.46;45.86
71795;BME280;59641;45.188;5.712;2023-03-04T12:28:46;99653.28;;;11.51;45.22
71795;BME280;59641;45.188;5.712;2023-03-04T12:36:39;99644.56;;;11.56;45.23
71795;BME280;59641;45.188;5.712;2023-03-04T12:42:10;99635.84;;;11.60;45.10
71795;BME280;59641;45.188;5.712;2023-03-04T12:53:46;99624.44;;;11.65;44.33
71795;BME280;59641;45.188;5.712;2023-03-04T12:55:54;99629.81;;;11.65;44.29
71795;BME280;59641;45.188;5.712;2023-03-04T12:58:24;99629.81;;;11.65;44.39
71795;BME280;59641;45.188;5.712;2023-03-04T13:00:59;99625.25;;;11.65;44.11
71795;BME280;59641;45.188;5.712;2023-03-04T13:03:36;99626.06;;;11.66;44.28
71795;BME280;59641;45.188;5.712;2023-03-04T13:06:17;99628.53;;;11.67;43.86
71795;BME280;59641;45.188;5.712;2023-03-04T13:09:20;99623.78;;;11.69;44.43
71795;BME280;59641;45.188;5.712;2023-03-04T13:16:42;99617.94;;;11.72;44.01
71795;BME280;59641;45.188;5.712;2023-03-04T13:22:39;99615.91;;;11.68;43.89
71795;BME280;59641;45.188;5.712;2023-03-04T13:48:45;99583.56;;;12.00;44.53
71795;BME280;59641;45.188;5.712;2023-03-04T13:56:33;99584.31;;;12.07;44.83
71795;BME280;59641;45.188;5.712;2023-03-04T13:59:14;99580.34;;;12.09;44.45
71795;BME280;59641;45.188;5.712;2023-03-04T14:04:21;99576.19;;;12.13;44.12
71795;BME280;59641;45.188;5.712;2023-03-04T14:06:52;99578.06;;;12.13;44.09
71795;BME280;59641;45.188;5.712;2023-03-04T14:09:23;99574.75;;;12.11;43.84
71795;BME280;59641;45.188;5.712;2023-03-04T14:11:50;99567.75;;;12.10;44.15
71795;BME280;59641;45.188;5.712;2023-03-04T14:14:25;99572.28;;;12.09;43.99
71795;BME280;59641;45.188;5.712;2023-03-04T14:16:56;99567.81;;;12.03;43.89
71795;BME280;59641;45.188;5.712;2023-03-04T14:19:30;99561.44;;;11.98;44.05
71795;BME280;59641;45.188;5.712;2023-03-04T14:21:58;99567.88;;;11.97;44.08
71795;BME280;59641;45.188;5.712;2023-03-04T14:24:24;99561.91;;;11.94;44.13
71795;BME280;59641;45.188;5.712;2023-03-04T14:27:03;99556.31;;;11.96;44.03
71795;BME280;59641;45.188;5.712;2023-03-04T14:29:34;99564.38;;;11.96;44.32
71795;BME280;59641;45.188;5.712;2023-03-04T14:31:59;99543.69;;;11.97;44.28
71795;BME280;59641;45.188;5.712;2023-03-04T14:34:35;99548.84;;;11.98;44.15
71795;BME280;59641;45.188;5.712;2023-03-04T14:37:03;99545.56;;;11.96;43.63
71795;BME280;59641;45.188;5.712;2023-03-04T14:39:42;99544.97;;;11.94;43.54
71795;BME280;59641;45.188;5.712;2023-03-04T14:42:11;99544.13;;;11.93;43.80
71795;BME280;59641;45.188;5.712;2023-03-04T14:44:48;99542.47;;;11.92;43.83
71795;BME280;59641;45.188;5.712;2023-03-04T14:49:42;99538.38;;;11.90;43.94